Time;durP1;ratioP1;P1;durP2;ratioP2;P2;SDS_P1;SDS_P2;PMS_P1;PMS_P2;Temp;Humidity;BMP_temperature;BMP_pressure;BME280_temperature;BME280_humidity;BME280_pressure;Samples;Min_cycle;Max_cycle;Signal;HPM_P1;HPM_P2
2024/01/12 00:00:29;;;;;;;27.83;13.23;;;-0.20;99.90;;;;;;5068970;28;20861;-69
2024/01/12 00:02:55;;;;;;;30.83;14.20;;;-0.20;99.90;;;;;;5066413;28;20234;-69
2024/01/12 00:05:20;;;;;;;26.63;12.47;;;-0.10;99.90;;;;;;5067693;28;20261;-70
2024/01/12 00:07:46;;;;;;;23.03;12.47;;;-0.20;99.90;;;;;;5066177;28;20238;-70
2024/01/12 00:10:13;;;;;;;23.63;13.47;;;-0.40;99.90;;;;;;5072673;28;20212;-70
2024/01/12 00:12:38;;;;;;;26.13;13.27;;;-0.40;99.90;;;;;;5069961;28;20308;-69
2024/01/12 00:15:05;;;;;;;25.70;13.97;;;-0.30;99.90;;;;;;5084847;28;20851;-70
2024/01/12 00:17:31;;;;;;;31.20;13.93;;;-0.30;99.90;;;;;;5065713;28;20247;-68
2024/01/12 00:19:57;;;;;;;29.70;14.40;;;-0.20;99.90;;;;;;5067016;28;20456;-69
2024/01/12 00:22:22;;;;;;;31.73;14.80;;;-0.20;99.90;;;;;;5067705;28;20545;-70
2024/01/12 00:24:49;;;;;;;28.20;14.10;;;-0.20;99.90;;;;;;5069315;28;20250;-69
2024/01/12 00:27:14;;;;;;;35.90;14.70;;;-0.20;99.90;;;;;;5051592;28;20234;-70
2024/01/12 00:29:40;;;;;;;22.67;13.40;;;-0.20;99.90;;;;;;5067320;28;20432;-70
2024/01/12 00:32:06;;;;;;;26.83;13.67;;;-0.20;99.90;;;;;;5049341;28;20228;-70
2024/01/12 00:34:32;;;;;;;19.10;11.77;;;-0.20;99.90;;;;;;5065782;28;20223;-70
2024/01/12 00:36:58;;;;;;;31.03;15.53;;;-0.20;99.90;;;;;;5067071;28;20937;-70
2024/01/12 00:39:23;;;;;;;24.77;13.50;;;-0.20;99.90;;;;;;5050073;28;21046;-70
2024/01/12 00:41:50;;;;;;;24.70;13.77;;;-0.30;99.90;;;;;;5067823;28;20266;-70
2024/01/12 00:44:21;;;;;;;30.13;14.60;;;-0.30;99.90;;;;;;5050999;28;20227;-70
2024/01/12 00:46:50;;;;;;;30.07;14.37;;;-0.30;99.90;;;;;;5065484;28;20960;-69
2024/01/12 00:49:18;;;;;;;24.47;12.10;;;-0.30;99.90;;;;;;5076276;28;20473;-70
2024/01/12 00:51:44;;;;;;;24.70;12.60;;;-0.40;99.90;;;;;;5067236;28;20990;-70
2024/01/12 00:54:10;;;;;;;19.17;11.23;;;-0.50;99.90;;;;;;5064419;28;20442;-70
2024/01/12 00:56:35;;;;;;;27.90;12.00;;;-0.50;99.90;;;;;;5068010;28;21200;-70
2024/01/12 00:59:01;;;;;;;25.77;12.60;;;-0.50;99.90;;;;;;5073435;28;20215;-70
2024/01/12 01:01:27;;;;;;;20.70;12.23;;;-0.50;99.90;;;;;;5070201;28;20224;-70
2024/01/12 01:03:52;;;;;;;20.90;10.73;;;-0.50;99.90;;;;;;5066132;28;20269;-69
2024/01/12 01:06:18;;;;;;;27.23;13.60;;;-0.40;99.90;;;;;;5074323;28;20220;-70
2024/01/12 01:08:45;;;;;;;30.63;13.90;;;-0.40;99.90;;;;;;5065935;28;20258;-70
2024/01/12 01:11:11;;;;;;;27.03;11.50;;;-0.40;99.90;;;;;;5050258;28;20302;-70
2024/01/12 01:13:37;;;;;;;24.20;12.23;;;-0.40;99.90;;;;;;5081710;28;20541;-70
2024/01/12 01:16:04;;;;;;;21.43;12.73;;;-0.40;99.90;;;;;;5067493;28;20220;-68
2024/01/12 01:18:30;;;;;;;24.93;12.90;;;-0.50;99.90;;;;;;5063882;28;20220;-71
2024/01/12 01:20:57;;;;;;;23.50;11.53;;;-0.50;99.90;;;;;;5066091;28;20450;-70
2024/01/12 01:23:23;;;;;;;14.67;9.40;;;-0.50;99.90;;;;;;5073563;28;20458;-70
2024/01/12 01:25:49;;;;;;;27.10;11.23;;;-0.50;99.90;;;;;;5066728;28;20511;-69
2024/01/12 01:28:15;;;;;;;22.37;11.80;;;-0.50;99.90;;;;;;5063552;28;20474;-69
2024/01/12 01:30:40;;;;;;;22.03;10.37;;;-0.50;99.90;;;;;;5071209;28;20481;-70
2024/01/12 01:33:06;;;;;;;25.80;12.10;;;-0.60;99.90;;;;;;5061825;28;20239;-70
2024/01/12 01:35:32;;;;;;;18.47;10.40;;;-0.80;99.90;;;;;;5072529;28;20220;-69
2024/01/12 01:37:57;;;;;;;24.20;11.90;;;-0.90;99.90;;;;;;5068463;28;20223;-69
2024/01/12 01:40:23;;;;;;;25.03;12.10;;;-1.00;99.90;;;;;;5076114;28;20224;-70
2024/01/12 01:42:49;;;;;;;23.83;11.50;;;-1.10;99.90;;;;;;5070941;28;20235;-69
2024/01/12 01:45:15;;;;;;;24.47;11.27;;;-1.20;99.90;;;;;;5070936;28;20216;-71
2024/01/12 01:47:46;;;;;;;16.93;10.10;;;-1.20;99.90;;;;;;5068137;28;20470;-70
2024/01/12 01:50:13;;;;;;;19.00;10.87;;;-1.10;99.90;;;;;;5061389;28;20450;-71
2024/01/12 01:52:39;;;;;;;23.90;11.50;;;-0.90;99.90;;;;;;5070258;28;20458;-69
2024/01/12 01:55:06;;;;;;;27.47;11.77;;;-0.80;99.90;;;;;;5070698;28;20454;-70
2024/01/12 01:57:34;;;;;;;18.97;10.63;;;-0.70;99.90;;;;;;5065532;28;20453;-70
2024/01/12 01:59:59;;;;;;;20.03;9.47;;;-0.60;99.90;;;;;;5068703;28;20495;-70
2024/01/12 02:02:25;;;;;;;20.03;9.70;;;-0.50;99.90;;;;;;5073089;28;20450;-70
2024/01/12 02:04:53;;;;;;;15.97;7.90;;;-0.50;99.90;;;;;;5067877;28;20239;-67
2024/01/12 02:07:19;;;;;;;16.57;7.30;;;-0.50;99.90;;;;;;5058054;28;20236;-70
2024/01/12 02:09:44;;;;;;;13.90;7.57;;;-0.50;99.90;;;;;;5070057;28;20499;-69
2024/01/12 02:12:10;;;;;;;16.87;8.27;;;-0.50;99.90;;;;;;5056657;28;20228;-70
2024/01/12 02:14:36;;;;;;;15.30;9.10;;;-0.50;99.90;;;;;;5063756;28;20224;-70
2024/01/12 02:17:02;;;;;;;15.77;8.77;;;-0.50;99.90;;;;;;5053306;28;20602;-70
2024/01/12 02:19:28;;;;;;;16.23;9.13;;;-0.40;99.90;;;;;;5068465;28;20457;-70
2024/01/12 02:21:53;;;;;;;12.33;7.17;;;-0.40;99.90;;;;;;5069260;28;20211;-69
2024/01/12 02:24:19;;;;;;;16.37;7.50;;;-0.40;99.90;;;;;;5076763;28;20273;-69
2024/01/12 02:26:44;;;;;;;16.07;7.40;;;-0.30;99.90;;;;;;5086013;28;20220;-69
2024/01/12 02:29:10;;;;;;;14.30;7.07;;;-0.30;99.90;;;;;;5070061;28;20266;-70
2024/01/12 02:31:36;;;;;;;13.83;6.87;;;-0.30;99.90;;;;;;5052496;28;20224;-70
2024/01/12 02:34:02;;;;;;;12.83;7.43;;;-0.40;99.90;;;;;;5085023;28;20530;-70
2024/01/12 02:36:28;;;;;;;11.57;7.17;;;-0.40;99.90;;;;;;5071365;28;20243;-70
2024/01/12 02:38:54;;;;;;;14.10;8.20;;;-0.30;99.90;;;;;;5067052;28;20677;-70
2024/01/12 02:41:20;;;;;;;12.60;7.27;;;-0.30;99.90;;;;;;5069671;28;20450;-69
2024/01/12 02:43:47;;;;;;;19.93;8.67;;;-0.30;99.90;;;;;;5063802;28;20446;-70
2024/01/12 02:46:13;;;;;;;15.80;9.00;;;-0.30;99.90;;;;;;5075977;28;20454;-71
2024/01/12 02:48:38;;;;;;;14.90;8.33;;;-0.30;99.90;;;;;;5076454;28;20500;-70
2024/01/12 02:51:05;;;;;;;12.30;7.83;;;-0.30;99.90;;;;;;5068466;28;20219;-69
2024/01/12 02:53:30;;;;;;;7.60;5.93;;;-0.30;99.90;;;;;;5075656;28;20219;-69
2024/01/12 02:55:56;;;;;;;12.90;6.90;;;-0.30;99.90;;;;;;5069762;28;20472;-70
2024/01/12 02:58:22;;;;;;;17.50;7.97;;;-0.30;99.90;;;;;;5051528;28;20323;-70
2024/01/12 03:00:47;;;;;;;18.73;7.47;;;-0.30;99.90;;;;;;5085410;28;20220;-69
2024/01/12 03:03:13;;;;;;;18.33;8.90;;;-0.30;99.90;;;;;;5071145;28;20212;-70
2024/01/12 03:05:38;;;;;;;11.87;7.30;;;-0.40;99.90;;;;;;5055127;28;20219;-70
2024/01/12 03:08:04;;;;;;;15.33;7.30;;;-0.40;99.90;;;;;;5072613;28;20219;-70
2024/01/12 03:10:30;;;;;;;12.40;6.40;;;-0.30;99.90;;;;;;5076639;28;20293;-70
2024/01/12 03:12:56;;;;;;;13.53;7.47;;;-0.30;99.90;;;;;;5070184;28;20282;-69
2024/01/12 03:15:22;;;;;;;13.00;7.50;;;-0.30;99.90;;;;;;5085706;28;20216;-69
2024/01/12 03:17:47;;;;;;;15.30;7.30;;;-0.20;99.90;;;;;;5047776;28;20224;-70
2024/01/12 03:20:13;;;;;;;22.43;7.50;;;-0.20;99.90;;;;;;5070937;28;20298;-70
2024/01/12 03:22:39;;;;;;;10.83;6.50;;;-0.20;99.90;;;;;;5069156;28;20231;-70
2024/01/12 03:25:04;;;;;;;16.03;7.73;;;-0.30;99.90;;;;;;5066133;28;20228;-70
2024/01/12 03:27:31;;;;;;;22.73;8.87;;;-0.20;99.90;;;;;;5084691;28;20228;-70
2024/01/12 03:29:57;;;;;;;13.13;7.83;;;-0.20;99.90;;;;;;5067934;28;20239;-70
2024/01/12 03:32:22;;;;;;;12.70;8.00;;;-0.20;99.90;;;;;;5068899;28;20479;-70
2024/01/12 03:34:48;;;;;;;12.40;6.30;;;-0.20;99.90;;;;;;5072995;28;20304;-69
2024/01/12 03:37:14;;;;;;;12.37;6.10;;;-0.20;99.90;;;;;;5068264;28;20587;-70
2024/01/12 03:39:39;;;;;;;11.77;5.80;;;-0.20;99.90;;;;;;5069626;28;20227;-70
2024/01/12 03:42:05;;;;;;;14.70;7.80;;;-0.20;99.90;;;;;;5063685;28;20308;-70
2024/01/12 03:44:31;;;;;;;14.87;7.33;;;-0.20;99.90;;;;;;5069916;28;20247;-70
2024/01/12 03:46:57;;;;;;;12.90;7.13;;;-0.30;99.90;;;;;;5085146;28;20587;-70
2024/01/12 03:49:22;;;;;;;11.17;7.20;;;-0.20;99.90;;;;;;5083794;28;20696;-70
2024/01/12 03:51:53;;;;;;;13.43;6.90;;;-0.20;99.90;;;;;;5083378;28;20223;-68
2024/01/12 03:54:23;;;;;;;11.07;7.20;;;-0.20;99.90;;;;;;5051878;28;20212;-70
2024/01/12 03:56:49;;;;;;;16.00;8.63;;;-0.20;99.90;;;;;;5066825;28;20569;-69
2024/01/12 03:59:15;;;;;;;15.30;7.17;;;-0.30;99.90;;;;;;5067077;28;20538;-70
2024/01/12 04:01:44;;;;;;;11.03;5.90;;;-0.20;99.90;;;;;;5069706;28;20241;-70
2024/01/12 04:04:10;;;;;;;15.17;6.33;;;-0.30;99.90;;;;;;5069764;28;20212;-70
2024/01/12 04:06:36;;;;;;;14.97;7.43;;;-0.30;99.90;;;;;;5068437;28;20454;-70
2024/01/12 04:09:02;;;;;;;20.60;7.90;;;-0.30;99.90;;;;;;5067172;28;20243;-70
2024/01/12 04:11:27;;;;;;;14.00;8.87;;;-0.20;99.90;;;;;;5048193;28;20451;-70
2024/01/12 04:13:53;;;;;;;18.00;7.90;;;-0.20;99.90;;;;;;5047890;28;20212;-69
2024/01/12 04:16:20;;;;;;;18.37;8.40;;;-0.30;99.90;;;;;;5068611;28;20211;-71
2024/01/12 04:18:45;;;;;;;12.13;8.03;;;-0.30;99.90;;;;;;5068441;28;20223;-70
2024/01/12 04:21:11;;;;;;;12.03;7.87;;;-0.30;99.90;;;;;;5077005;28;20493;-70
2024/01/12 04:23:38;;;;;;;14.70;9.63;;;-0.30;99.90;;;;;;5052640;28;20227;-70
2024/01/12 04:26:04;;;;;;;16.30;9.10;;;-0.30;99.90;;;;;;5069082;28;20458;-68
2024/01/12 04:28:29;;;;;;;19.37;8.90;;;-0.20;99.90;;;;;;5065664;28;20493;-69
2024/01/12 04:30:55;;;;;;;18.67;8.20;;;-0.20;99.90;;;;;;5065458;28;20233;-68
2024/01/12 04:33:21;;;;;;;23.17;8.93;;;-0.20;99.90;;;;;;5050498;28;20215;-70
2024/01/12 04:35:47;;;;;;;19.03;7.90;;;-0.20;99.90;;;;;;5050356;28;20212;-70
2024/01/12 04:38:12;;;;;;;13.47;8.37;;;-0.30;99.90;;;;;;5082439;28;20223;-70
2024/01/12 04:40:39;;;;;;;14.27;8.40;;;-0.20;99.90;;;;;;5073364;28;20480;-70
2024/01/12 04:43:05;;;;;;;13.70;8.00;;;-0.20;99.90;;;;;;5057675;28;20315;-70
2024/01/12 04:45:30;;;;;;;18.83;10.33;;;-0.20;99.90;;;;;;5067929;28;20514;-70
2024/01/12 04:47:56;;;;;;;29.07;14.93;;;-0.20;99.90;;;;;;5081655;28;20234;-69
2024/01/12 04:50:22;;;;;;;22.53;10.07;;;-0.10;99.90;;;;;;5081643;28;20224;-70
2024/01/12 04:52:50;;;;;;;20.43;9.83;;;-0.20;99.90;;;;;;5063316;28;20228;-69
2024/01/12 04:55:16;;;;;;;21.57;10.20;;;-0.20;99.90;;;;;;5065468;28;20876;-69
2024/01/12 04:57:42;;;;;;;16.40;7.13;;;-0.20;99.90;;;;;;5063615;28;20493;-69
2024/01/12 05:00:08;;;;;;;22.10;9.60;;;-0.20;99.90;;;;;;5065021;28;20219;-68
2024/01/12 05:02:34;;;;;;;17.97;9.57;;;-0.20;99.90;;;;;;5078813;28;20299;-70
2024/01/12 05:04:59;;;;;;;16.57;7.13;;;-0.20;99.90;;;;;;5082655;28;20562;-69
2024/01/12 05:07:25;;;;;;;19.27;8.17;;;-0.10;99.90;;;;;;5065733;28;20277;-70
2024/01/12 05:09:51;;;;;;;23.27;9.97;;;0.00;99.90;;;;;;5067309;28;20218;-69
2024/01/12 05:12:16;;;;;;;19.60;11.30;;;-0.10;99.90;;;;;;5067317;28;20673;-69
2024/01/12 05:14:42;;;;;;;21.67;10.90;;;-0.10;99.90;;;;;;5050616;28;20258;-69
2024/01/12 05:17:08;;;;;;;17.47;9.60;;;-0.10;99.90;;;;;;5064963;28;20266;-71
2024/01/12 05:19:33;;;;;;;15.27;7.73;;;-0.10;99.90;;;;;;5060509;28;20228;-70
2024/01/12 05:22:00;;;;;;;20.70;10.23;;;-0.10;99.90;;;;;;5065807;28;20228;-70
2024/01/12 05:24:25;;;;;;;15.13;8.97;;;0.00;99.90;;;;;;5072946;28;20219;-71
2024/01/12 05:26:51;;;;;;;20.70;10.13;;;0.00;99.90;;;;;;5066575;28;20553;-70
2024/01/12 05:29:17;;;;;;;23.63;9.80;;;0.00;99.90;;;;;;5066699;28;20453;-70
2024/01/12 05:31:43;;;;;;;18.77;9.37;;;-0.10;99.90;;;;;;5067157;28;20212;-71
2024/01/12 05:34:09;;;;;;;22.17;9.30;;;0.00;99.90;;;;;;5066188;28;20216;-70
2024/01/12 05:36:35;;;;;;;19.80;9.43;;;0.00;99.90;;;;;;5082977;28;20533;-70
2024/01/12 05:39:01;;;;;;;22.80;11.23;;;0.00;99.90;;;;;;5065232;28;20689;-70
2024/01/12 05:41:26;;;;;;;22.40;9.90;;;0.00;99.90;;;;;;5068721;28;20212;-70
2024/01/12 05:43:52;;;;;;;18.83;9.63;;;0.00;99.90;;;;;;5052385;28;20244;-70
2024/01/12 05:46:19;;;;;;;25.20;9.97;;;0.00;99.90;;;;;;5061657;28;20215;-71
2024/01/12 05:48:45;;;;;;;23.57;10.90;;;0.00;99.90;;;;;;5065558;28;20454;-70
2024/01/12 05:51:13;;;;;;;19.03;9.60;;;0.10;99.90;;;;;;5067512;28;20446;-70
2024/01/12 05:53:39;;;;;;;17.27;9.20;;;0.10;99.90;;;;;;5074246;28;20455;-70
2024/01/12 05:56:05;;;;;;;14.23;10.20;;;0.10;99.90;;;;;;5067108;28;20465;-72
2024/01/12 05:58:31;;;;;;;18.30;9.07;;;0.00;99.90;;;;;;5052392;28;20688;-71
2024/01/12 06:00:56;;;;;;;20.50;10.90;;;0.10;99.90;;;;;;5070304;28;20211;-71
2024/01/12 06:03:22;;;;;;;16.80;8.63;;;0.10;99.90;;;;;;5051435;28;20261;-71
2024/01/12 06:05:50;;;;;;;14.97;8.23;;;0.10;99.90;;;;;;5055052;28;20461;-70
2024/01/12 06:08:16;;;;;;;17.53;9.50;;;0.10;99.90;;;;;;5068828;28;20706;-70
2024/01/12 06:10:45;;;;;;;21.60;8.67;;;0.10;99.90;;;;;;5068542;28;20812;-71
2024/01/12 06:13:11;;;;;;;14.00;8.30;;;0.10;99.90;;;;;;5051317;28;20464;-71
2024/01/12 06:15:37;;;;;;;13.40;7.27;;;0.10;99.90;;;;;;5068011;28;20455;-70
2024/01/12 06:18:03;;;;;;;16.70;8.93;;;0.10;99.90;;;;;;5083554;28;20318;-70
2024/01/12 06:20:28;;;;;;;14.77;9.40;;;0.10;99.90;;;;;;5073137;28;21054;-70
2024/01/12 06:22:54;;;;;;;25.30;8.70;;;0.20;99.90;;;;;;5069958;28;20224;-70
2024/01/12 06:25:19;;;;;;;23.47;10.57;;;0.20;99.90;;;;;;5073984;28;20209;-70
2024/01/12 06:27:45;;;;;;;18.40;8.77;;;0.20;99.90;;;;;;5068621;28;20242;-69
2024/01/12 06:30:11;;;;;;;25.97;10.57;;;0.20;99.90;;;;;;5066477;28;20269;-70
2024/01/12 06:32:38;;;;;;;17.47;8.73;;;0.10;99.90;;;;;;5062830;28;20265;-71
2024/01/12 06:35:07;;;;;;;18.40;9.70;;;0.10;99.90;;;;;;5071609;28;20463;-70
2024/01/12 06:37:32;;;;;;;24.27;9.40;;;0.10;99.90;;;;;;5068678;28;20449;-70
2024/01/12 06:39:59;;;;;;;22.47;9.57;;;0.10;99.90;;;;;;5066561;28;20463;-71
2024/01/12 06:42:25;;;;;;;25.13;9.33;;;0.10;99.90;;;;;;5055039;28;20238;-69
2024/01/12 06:44:50;;;;;;;20.30;8.70;;;0.10;99.90;;;;;;5071546;28;20441;-70
2024/01/12 06:47:16;;;;;;;16.57;8.70;;;0.10;99.90;;;;;;5070900;28;20239;-70
2024/01/12 06:49:43;;;;;;;23.90;10.23;;;0.10;99.90;;;;;;5075415;28;20231;-70
2024/01/12 06:52:09;;;;;;;25.07;10.30;;;0.10;99.90;;;;;;5067357;28;20234;-70
2024/01/12 06:54:35;;;;;;;20.77;9.77;;;0.10;99.90;;;;;;5071237;28;20972;-70
2024/01/12 06:57:00;;;;;;;29.17;10.87;;;0.10;99.90;;;;;;5083849;28;20508;-71
2024/01/12 06:59:26;;;;;;;22.30;9.27;;;0.10;99.90;;;;;;5068209;28;20266;-71
2024/01/12 07:01:52;;;;;;;18.73;8.47;;;0.10;99.90;;;;;;5065820;28;20224;-71
2024/01/12 07:04:17;;;;;;;24.50;9.83;;;0.10;99.90;;;;;;5087649;28;20295;-70
2024/01/12 07:06:43;;;;;;;23.73;9.53;;;0.10;99.90;;;;;;5070296;28;20204;-70
2024/01/12 07:09:12;;;;;;;15.83;9.57;;;0.00;99.90;;;;;;5068457;28;20224;-71
2024/01/12 07:11:44;;;;;;;19.80;10.03;;;0.00;99.90;;;;;;5070028;28;20234;-71
2024/01/12 07:14:11;;;;;;;23.23;10.03;;;0.00;99.90;;;;;;5071997;28;20449;-71
2024/01/12 07:16:37;;;;;;;17.37;9.43;;;0.10;99.90;;;;;;5070348;28;20473;-70
2024/01/12 07:19:03;;;;;;;21.20;9.63;;;0.10;99.90;;;;;;5071084;28;20463;-70
2024/01/12 07:21:28;;;;;;;18.30;8.73;;;0.00;99.90;;;;;;5069077;28;21042;-71
2024/01/12 07:23:54;;;;;;;25.37;10.00;;;0.00;99.90;;;;;;5068371;28;20458;-70
2024/01/12 07:26:20;;;;;;;15.90;8.10;;;0.10;99.90;;;;;;5066110;28;20681;-70
2024/01/12 07:28:46;;;;;;;22.77;10.40;;;0.10;99.90;;;;;;5068820;28;20288;-71
2024/01/12 07:31:12;;;;;;;20.13;10.13;;;0.00;99.90;;;;;;5066947;28;20231;-70
2024/01/12 07:33:37;;;;;;;17.53;9.40;;;0.10;99.90;;;;;;5066177;28;20486;-71
2024/01/12 07:36:03;;;;;;;27.43;10.17;;;0.10;99.90;;;;;;5072587;28;20211;-69
2024/01/12 07:38:29;;;;;;;19.53;9.90;;;0.20;99.90;;;;;;5068464;28;20609;-71
2024/01/12 07:40:54;;;;;;;19.87;9.53;;;0.20;99.90;;;;;;5073840;28;20219;-70
2024/01/12 07:43:20;;;;;;;18.00;10.10;;;0.20;99.90;;;;;;5073182;28;20216;-70
2024/01/12 07:45:46;;;;;;;20.50;8.83;;;0.20;99.90;;;;;;5073571;28;20212;-70
2024/01/12 07:48:11;;;;;;;15.03;8.80;;;0.10;99.90;;;;;;5064139;28;20227;-70
2024/01/12 07:50:37;;;;;;;19.37;8.90;;;0.20;99.90;;;;;;5071547;28;20261;-71
2024/01/12 07:53:04;;;;;;;19.57;9.60;;;0.20;99.90;;;;;;5083271;28;20593;-70
2024/01/12 07:55:31;;;;;;;19.53;9.17;;;0.20;99.90;;;;;;5053144;28;20985;-70
2024/01/12 07:57:57;;;;;;;12.93;7.40;;;0.20;99.90;;;;;;5070393;28;20466;-71
2024/01/12 08:00:22;;;;;;;15.87;8.10;;;0.30;99.90;;;;;;5066630;28;20505;-71
2024/01/12 08:02:51;;;;;;;16.23;8.47;;;0.30;99.90;;;;;;5069317;28;20233;-71
2024/01/12 08:05:18;;;;;;;13.10;7.30;;;0.30;99.90;;;;;;5071923;28;20225;-71
2024/01/12 08:07:43;;;;;;;14.00;7.73;;;0.30;99.90;;;;;;5067256;28;20489;-70
2024/01/12 08:10:09;;;;;;;14.83;8.60;;;0.30;99.90;;;;;;5069643;28;20952;-70
2024/01/12 08:12:35;;;;;;;15.57;7.30;;;0.30;99.90;;;;;;5070592;28;20215;-69
2024/01/12 08:15:01;;;;;;;16.67;7.47;;;0.30;99.90;;;;;;5069679;28;20212;-70
2024/01/12 08:17:26;;;;;;;11.13;7.40;;;0.30;99.90;;;;;;5079007;28;20459;-71
2024/01/12 08:19:52;;;;;;;18.90;7.90;;;0.40;99.90;;;;;;5066251;28;20468;-70
2024/01/12 08:22:18;;;;;;;14.63;7.93;;;0.40;99.90;;;;;;5067418;28;20222;-70
2024/01/12 08:24:43;;;;;;;11.70;6.40;;;0.40;99.90;;;;;;5069869;28;20216;-71
2024/01/12 08:27:09;;;;;;;14.47;7.23;;;0.50;99.90;;;;;;5076263;28;20219;-70
2024/01/12 08:29:34;;;;;;;12.10;6.63;;;0.50;99.90;;;;;;5054742;28;20264;-70
2024/01/12 08:32:00;;;;;;;13.93;6.80;;;0.50;99.90;;;;;;5053721;28;20216;-70
2024/01/12 08:34:26;;;;;;;7.50;6.17;;;0.40;99.90;;;;;;5066032;28;20208;-71
2024/01/12 08:36:53;;;;;;;13.60;7.07;;;0.40;99.90;;;;;;5048894;28;20473;-71
2024/01/12 08:39:19;;;;;;;14.90;6.47;;;0.40;99.90;;;;;;5049099;28;20299;-71
2024/01/12 08:41:44;;;;;;;12.00;6.97;;;0.50;99.90;;;;;;5063240;28;20574;-71
2024/01/12 08:44:13;;;;;;;8.83;5.60;;;0.50;99.90;;;;;;5069450;28;20341;-69
2024/01/12 08:46:39;;;;;;;12.80;7.67;;;0.40;99.90;;;;;;5051701;28;20674;-71
2024/01/12 08:49:05;;;;;;;10.27;6.67;;;0.50;99.90;;;;;;5069405;28;20565;-70
2024/01/12 08:51:31;;;;;;;12.40;8.10;;;0.50;99.90;;;;;;5068699;28;20604;-69
2024/01/12 08:53:56;;;;;;;12.73;8.57;;;0.40;99.90;;;;;;5066832;28;20219;-71
2024/01/12 08:56:22;;;;;;;18.67;13.70;;;0.50;99.90;;;;;;5063580;28;20434;-70
2024/01/12 08:58:48;;;;;;;20.30;15.30;;;0.50;99.90;;;;;;5082522;28;20286;-71
2024/01/12 09:01:14;;;;;;;25.33;18.10;;;0.50;99.90;;;;;;5069397;28;20264;-71
2024/01/12 09:03:39;;;;;;;25.80;18.80;;;0.50;99.90;;;;;;5048739;28;20216;-71
2024/01/12 09:06:05;;;;;;;22.50;14.67;;;0.50;99.90;;;;;;5065676;28;20459;-70
2024/01/12 09:08:31;;;;;;;15.80;11.87;;;0.50;99.90;;;;;;5064340;28;20278;-71
2024/01/12 09:10:56;;;;;;;15.80;9.43;;;0.50;99.90;;;;;;5066352;28;20300;-70
2024/01/12 09:13:22;;;;;;;15.67;11.27;;;0.50;99.90;;;;;;5072484;28;20211;-71
2024/01/12 09:15:48;;;;;;;15.30;10.30;;;0.50;99.90;;;;;;5067624;28;20269;-71
2024/01/12 09:18:13;;;;;;;16.70;10.77;;;0.50;99.90;;;;;;5068151;28;20219;-70
2024/01/12 09:20:39;;;;;;;16.53;10.07;;;0.50;99.90;;;;;;5057530;28;20214;-71
2024/01/12 09:23:05;;;;;;;17.83;10.97;;;0.50;99.90;;;;;;5068113;28;20212;-71
2024/01/12 09:25:32;;;;;;;16.03;8.33;;;0.50;99.90;;;;;;5068876;28;20226;-71
2024/01/12 09:27:58;;;;;;;14.63;6.07;;;0.50;99.90;;;;;;5064180;28;20219;-69
2024/01/12 09:30:23;;;;;;;9.33;5.50;;;0.50;99.90;;;;;;5067618;28;20450;-71
2024/01/12 09:32:49;;;;;;;9.87;5.23;;;0.60;99.90;;;;;;5071327;28;20578;-71
2024/01/12 09:35:15;;;;;;;10.27;5.87;;;0.50;99.90;;;;;;5051204;28;20224;-71
2024/01/12 09:37:41;;;;;;;13.57;5.47;;;0.60;99.90;;;;;;5048057;28;20219;-71
2024/01/12 09:40:07;;;;;;;10.60;4.80;;;0.60;99.90;;;;;;5049488;28;20477;-71
2024/01/12 09:42:33;;;;;;;5.93;3.70;;;0.50;99.90;;;;;;5072013;28;20723;-71
2024/01/12 09:45:01;;;;;;;10.47;5.47;;;0.50;99.90;;;;;;5060392;28;20461;-70
2024/01/12 09:47:27;;;;;;;7.73;4.23;;;0.50;99.90;;;;;;5066854;28;20466;-70
2024/01/12 09:49:53;;;;;;;6.80;3.93;;;0.50;99.90;;;;;;5069945;28;20485;-71
2024/01/12 09:52:19;;;;;;;6.07;3.67;;;0.60;99.90;;;;;;5070512;28;20458;-71
2024/01/12 09:54:46;;;;;;;9.80;4.60;;;0.60;99.90;;;;;;5073747;28;20829;-70
2024/01/12 09:57:12;;;;;;;6.33;3.73;;;0.60;99.90;;;;;;5069487;28;20435;-70
2024/01/12 09:59:38;;;;;;;8.47;4.07;;;0.60;99.90;;;;;;5075105;28;20489;-71
2024/01/12 10:02:08;;;;;;;9.57;4.50;;;0.70;99.90;;;;;;5087842;28;20449;-69
2024/01/12 10:04:35;;;;;;;9.60;4.77;;;0.60;99.90;;;;;;5072921;28;20469;-70
2024/01/12 10:07:00;;;;;;;6.40;3.50;;;0.70;99.90;;;;;;5068184;28;20446;-71
2024/01/12 10:09:27;;;;;;;4.70;3.43;;;0.70;99.90;;;;;;5071474;28;20450;-71
2024/01/12 10:11:54;;;;;;;6.77;4.10;;;0.70;99.90;;;;;;5071366;28;20322;-70
2024/01/12 10:14:25;;;;;;;6.97;4.20;;;0.70;99.90;;;;;;5076543;28;20445;-71
2024/01/12 10:16:57;;;;;;;5.90;3.47;;;0.80;99.90;;;;;;5060159;28;20452;-71
2024/01/12 10:19:23;;;;;;;4.77;3.10;;;0.80;99.90;;;;;;5067746;28;20854;-71
2024/01/12 10:21:50;;;;;;;8.20;3.33;;;0.80;99.90;;;;;;5076808;28;20461;-69
2024/01/12 10:24:17;;;;;;;5.10;3.40;;;0.80;99.90;;;;;;5053525;28;20556;-70
2024/01/12 10:26:43;;;;;;;3.97;3.20;;;0.80;99.90;;;;;;5075231;28;20438;-71
2024/01/12 10:29:10;;;;;;;4.70;3.17;;;0.80;99.90;;;;;;5066776;28;20473;-71
2024/01/12 10:31:41;;;;;;;6.43;3.50;;;0.80;99.90;;;;;;5072243;28;20469;-70
2024/01/12 10:34:11;;;;;;;6.73;2.80;;;0.80;99.90;;;;;;5067522;28;20454;-70
2024/01/12 10:36:37;;;;;;;6.87;3.37;;;0.70;99.90;;;;;;5072757;28;21049;-70
2024/01/12 10:39:04;;;;;;;3.73;2.70;;;0.70;99.90;;;;;;5073975;28;20473;-70
2024/01/12 10:41:33;;;;;;;4.63;3.40;;;0.80;99.90;;;;;;5069469;28;20553;-71
2024/01/12 10:44:03;;;;;;;4.57;2.83;;;0.80;99.90;;;;;;5076365;28;20456;-70
2024/01/12 10:46:48;;;;;;;5.80;2.67;;;0.80;99.90;;;;;;5068862;28;20591;-71
2024/01/12 10:49:17;;;;;;;4.33;2.73;;;0.80;99.90;;;;;;5085024;28;20485;-71
2024/01/12 10:51:57;;;;;;;7.90;3.57;;;0.80;99.90;;;;;;5069064;28;20901;-72
2024/01/12 10:54:34;;;;;;;5.30;4.03;;;0.70;99.90;;;;;;5068958;28;20556;-71
2024/01/12 10:57:00;;;;;;;6.80;3.60;;;0.80;99.90;;;;;;5068886;28;20458;-69
2024/01/12 10:59:27;;;;;;;4.77;3.57;;;0.80;99.90;;;;;;5072178;28;20476;-70
2024/01/12 11:01:54;;;;;;;7.70;4.17;;;0.80;99.90;;;;;;5067762;28;20486;-71
2024/01/12 11:04:21;;;;;;;6.13;4.13;;;0.80;99.90;;;;;;5073902;28;20476;-71
2024/01/12 11:06:51;;;;;;;6.57;3.63;;;0.80;99.90;;;;;;5068193;28;20524;-70
2024/01/12 11:09:18;;;;;;;7.27;3.17;;;0.80;99.90;;;;;;5066274;28;20463;-71
2024/01/12 11:11:51;;;;;;;4.53;3.10;;;0.80;99.90;;;;;;5074598;28;21049;-70
2024/01/12 11:14:17;;;;;;;8.90;3.80;;;0.80;99.90;;;;;;5090756;28;20483;-71
2024/01/12 11:16:42;;;;;;;7.70;3.87;;;0.80;99.90;;;;;;5071005;28;20494;-71
2024/01/12 11:19:14;;;;;;;8.90;3.90;;;0.80;99.90;;;;;;5063878;28;20494;-71
2024/01/12 11:21:41;;;;;;;5.37;3.17;;;0.80;99.90;;;;;;5066139;28;20242;-71
2024/01/12 11:24:10;;;;;;;6.43;3.10;;;0.80;99.90;;;;;;5072607;28;20453;-70
2024/01/12 11:26:35;;;;;;;4.60;2.50;;;0.80;99.90;;;;;;5064824;28;20467;-70
2024/01/12 11:29:01;;;;;;;4.37;3.20;;;0.80;99.90;;;;;;5056177;28;20485;-69
2024/01/12 11:31:27;;;;;;;8.57;4.40;;;0.80;99.90;;;;;;5070837;28;20230;-70
2024/01/12 11:33:58;;;;;;;6.83;3.10;;;0.80;99.90;;;;;;5056564;28;20211;-70
2024/01/12 11:36:30;;;;;;;5.50;3.23;;;0.80;99.90;;;;;;5069905;28;20219;-71
2024/01/12 11:39:00;;;;;;;7.10;3.67;;;0.80;99.90;;;;;;5069981;28;20465;-71
2024/01/12 11:41:30;;;;;;;4.80;3.67;;;0.80;99.90;;;;;;5084528;28;20516;-72
2024/01/12 11:43:56;;;;;;;5.93;3.60;;;0.70;99.90;;;;;;5070108;28;20474;-71
2024/01/12 11:46:26;;;;;;;6.60;3.90;;;0.70;99.90;;;;;;5068431;28;20468;-71
2024/01/12 11:48:52;;;;;;;7.97;3.60;;;0.80;99.90;;;;;;5068775;28;20515;-71
2024/01/12 11:51:22;;;;;;;6.77;4.10;;;0.70;99.90;;;;;;5065740;28;21072;-71
2024/01/12 11:53:57;;;;;;;7.37;3.93;;;0.80;99.90;;;;;;5086183;28;20722;-71
2024/01/12 11:56:27;;;;;;;7.73;3.30;;;0.80;99.90;;;;;;5063376;28;20539;-71
2024/01/12 11:58:54;;;;;;;6.27;4.53;;;0.70;99.90;;;;;;5049132;28;21045;-71
2024/01/12 12:01:20;;;;;;;16.40;5.80;;;0.80;99.90;;;;;;5084138;28;20471;-71
2024/01/12 12:03:46;;;;;;;7.60;4.00;;;0.80;99.90;;;;;;5068014;28;21041;-70
2024/01/12 12:06:12;;;;;;;9.60;4.27;;;0.70;99.90;;;;;;5069929;28;20485;-70
2024/01/12 12:08:42;;;;;;;9.53;5.13;;;0.80;99.90;;;;;;5065239;28;20320;-70
2024/01/12 12:11:08;;;;;;;10.20;5.20;;;0.70;99.90;;;;;;5070393;28;20477;-70
2024/01/12 12:13:35;;;;;;;8.90;4.70;;;0.70;99.90;;;;;;5066831;28;20505;-71
2024/01/12 12:16:01;;;;;;;10.57;4.30;;;0.80;99.90;;;;;;5086092;28;20995;-70
2024/01/12 12:18:31;;;;;;;10.20;5.20;;;0.80;99.90;;;;;;5072450;28;20454;-70
2024/01/12 12:20:59;;;;;;;10.90;4.77;;;0.80;99.90;;;;;;5066551;28;20458;-71
2024/01/12 12:23:25;;;;;;;9.70;4.70;;;0.90;99.90;;;;;;5083111;28;20511;-71
2024/01/12 12:25:52;;;;;;;9.50;4.80;;;0.90;99.90;;;;;;5070932;28;20458;-71
2024/01/12 12:28:18;;;;;;;11.37;4.90;;;0.90;99.90;;;;;;5070544;28;20228;-71
2024/01/12 12:30:43;;;;;;;5.30;4.00;;;1.00;99.90;;;;;;5074433;28;20465;-69
2024/01/12 12:33:11;;;;;;;7.50;3.90;;;1.00;99.90;;;;;;5068335;28;20245;-71
2024/01/12 12:35:37;;;;;;;6.07;4.27;;;0.90;99.90;;;;;;5069998;28;20212;-70
2024/01/12 12:38:03;;;;;;;7.87;4.50;;;0.90;99.90;;;;;;5069406;28;20485;-70